Hobro, Denmark
Current Conditions -  °F | °C
As of 8:50 PM on Sunday 25 Jan 2015 (Local Time) from EKYT Reporting Station
Broken Clouds Broken Clouds  
Wind Chill: 36°   Ceiling: 8700
Heat Index: 36°   Visibility: 6mi
Dew Point: 36°   Wind: 3mph
Humidity: 100%   Direction: 200°SSW
Pressure: 30.15"   Gusts: NA
Location:  56.64°N, 9.79°E
Report Text: EKYT 251950Z 20003KT 9999 FEW025 BKN087 02/02 Q1021 R26/090195
Loading
Personal Weather Stations






























Interactive Weather Map New forecast layout! Learn more

10-Day Weather Forecast

Advertisements
Track Severe Weather on mobile